createdAt,value
2023-05-19T00:02:09.419Z,48.78
2023-05-19T00:04:40.754Z,50.25
2023-05-19T00:07:11.660Z,50.42
2023-05-19T00:09:40.253Z,49.13
2023-05-19T00:12:10.735Z,47.97
2023-05-19T00:14:40.974Z,49.60
2023-05-19T00:17:10.070Z,50.05
2023-05-19T00:19:38.137Z,50.20
2023-05-19T00:22:06.359Z,49.90
2023-05-19T00:24:35.081Z,51.58
2023-05-19T00:27:03.052Z,51.25
2023-05-19T00:29:31.400Z,51.38
2023-05-19T00:32:01.443Z,50.22
2023-05-19T00:34:29.639Z,50.67
2023-05-19T00:36:57.758Z,51.53
2023-05-19T00:39:25.882Z,50.63
2023-05-19T00:41:53.968Z,51.45
2023-05-19T00:44:22.022Z,53.28
2023-05-19T00:46:50.171Z,52.88
2023-05-19T00:49:19.701Z,50.95
2023-05-19T00:51:48.014Z,52.92
2023-05-19T00:54:16.682Z,51.78
2023-05-19T00:56:44.838Z,52.42
2023-05-19T00:59:13.321Z,51.67
2023-05-19T01:01:41.594Z,52.75
2023-05-19T01:04:10.801Z,52.47
2023-05-19T01:06:40.507Z,53.40
2023-05-19T01:09:09.139Z,54.17
2023-05-19T01:11:37.307Z,52.33
2023-05-19T01:14:06.227Z,53.42
2023-05-19T01:16:39.620Z,52.65
2023-05-19T01:19:22.916Z,53.35
2023-05-19T01:22:23.171Z,52.80
2023-05-19T01:25:17.677Z,53.17
2023-05-19T01:28:09.527Z,53.53
2023-05-19T01:30:42.358Z,53.95
2023-05-19T01:33:14.124Z,53.95
2023-05-19T01:35:44.156Z,52.78
2023-05-19T01:38:14.341Z,52.13
2023-05-19T01:40:43.708Z,52.95
2023-05-19T01:43:17.790Z,52.92
2023-05-19T01:45:48.249Z,53.38
2023-05-19T01:48:16.792Z,53.67
2023-05-19T01:50:45.316Z,53.60
2023-05-19T01:53:13.680Z,52.92
2023-05-19T01:55:45.870Z,52.45
2023-05-19T01:58:20.721Z,51.95
2023-05-19T02:00:58.665Z,52.15
2023-05-19T02:03:46.739Z,52.53
2023-05-19T02:06:24.124Z,52.08
2023-05-19T02:09:03.706Z,51.85
2023-05-19T02:11:38.620Z,52.95
2023-05-19T02:14:12.823Z,52.15
2023-05-19T02:16:45.613Z,50.88
2023-05-19T02:19:23.015Z,51.95
2023-05-19T02:21:51.282Z,53.28
2023-05-19T02:24:20.207Z,53.22
2023-05-19T02:26:48.484Z,52.28
2023-05-19T02:29:16.567Z,52.20
2023-05-19T02:31:46.093Z,54.42
2023-05-19T02:34:14.309Z,53.13
2023-05-19T02:36:44.182Z,52.80
2023-05-19T02:39:12.525Z,51.15
2023-05-19T02:41:41.054Z,51.47
2023-05-19T02:44:09.243Z,51.72
2023-05-19T02:46:37.389Z,51.78
2023-05-19T02:49:07.740Z,51.30
2023-05-19T02:51:36.070Z,51.22
2023-05-19T02:54:04.178Z,51.13
2023-05-19T02:56:32.233Z,50.83
2023-05-19T02:59:00.942Z,50.67
2023-05-19T03:01:30.103Z,52.20
2023-05-19T03:03:58.282Z,50.55
2023-05-19T03:06:28.304Z,51.22
2023-05-19T03:08:56.565Z,50.67
2023-05-19T03:11:24.979Z,51.30
2023-05-19T03:13:53.137Z,51.00
2023-05-19T03:16:22.119Z,50.78
2023-05-19T03:18:50.379Z,50.30
2023-05-19T03:21:18.606Z,49.85
2023-05-19T03:23:48.479Z,49.55
2023-05-19T03:26:16.845Z,49.13
2023-05-19T03:28:45.062Z,48.97
2023-05-19T03:31:16.459Z,48.13
2023-05-19T03:33:48.558Z,49.60
2023-05-19T03:36:17.592Z,48.17
2023-05-19T03:38:47.070Z,49.30
2023-05-19T03:41:15.288Z,48.63
2023-05-19T03:43:43.714Z,48.10
2023-05-19T03:46:11.729Z,48.17
2023-05-19T03:48:39.796Z,47.25
2023-05-19T03:51:09.098Z,47.88
2023-05-19T03:53:37.990Z,47.38
2023-05-19T03:56:08.994Z,46.47
2023-05-19T03:58:40.859Z,46.88
2023-05-19T04:01:09.304Z,47.25
2023-05-19T04:03:37.469Z,47.72
2023-05-19T04:06:06.691Z,47.10
2023-05-19T04:08:34.888Z,47.33
2023-05-19T04:11:02.835Z,46.42
2023-05-19T04:13:33.787Z,46.28
2023-05-19T04:16:02.267Z,46.42
2023-05-19T04:18:30.323Z,47.05
2023-05-19T04:20:58.740Z,47.03
2023-05-19T04:23:26.841Z,46.42
2023-05-19T04:25:57.102Z,45.92
2023-05-19T04:28:25.159Z,44.67
2023-05-19T04:30:54.893Z,48.88
2023-05-19T04:33:23.019Z,46.67
2023-05-19T04:35:51.668Z,45.72
2023-05-19T04:38:20.302Z,45.85
2023-05-19T04:40:50.369Z,43.88
2023-05-19T04:43:19.417Z,44.42
2023-05-19T04:45:50.267Z,44.28
2023-05-19T04:48:21.668Z,43.83
2023-05-19T04:50:53.229Z,43.38
2023-05-19T04:53:22.092Z,42.92
2023-05-19T04:55:50.373Z,42.30
2023-05-19T04:58:18.475Z,41.80
2023-05-19T05:00:46.539Z,42.13
2023-05-19T05:03:17.525Z,42.42
2023-05-19T05:05:47.074Z,41.20
2023-05-19T05:08:21.839Z,42.13
2023-05-19T05:10:51.245Z,41.58
2023-05-19T05:13:20.740Z,41.15
2023-05-19T05:15:52.200Z,41.63
2023-05-19T05:18:21.170Z,43.05
2023-05-19T05:20:51.355Z,41.55
2023-05-19T05:23:19.973Z,42.22
2023-05-19T05:25:49.145Z,42.28
2023-05-19T05:28:17.547Z,41.40
2023-05-19T05:30:46.429Z,41.78
2023-05-19T05:33:15.222Z,41.47
2023-05-19T05:35:46.750Z,41.38
2023-05-19T05:38:16.256Z,41.30
2023-05-19T05:40:44.386Z,41.00
2023-05-19T05:43:12.524Z,41.20
2023-05-19T05:45:40.619Z,41.35
2023-05-19T05:48:09.524Z,42.13
2023-05-19T05:50:38.407Z,41.40
2023-05-19T05:53:10.745Z,41.55
2023-05-19T05:55:41.091Z,43.03
2023-05-19T05:58:11.111Z,42.08
2023-05-19T06:00:39.800Z,42.95
2023-05-19T06:03:08.270Z,43.33
2023-05-19T06:05:36.755Z,43.53
2023-05-19T06:08:05.614Z,43.80
2023-05-19T06:10:35.743Z,45.13
2023-05-19T06:13:05.525Z,43.88
2023-05-19T06:15:33.799Z,43.20
2023-05-19T06:18:02.344Z,42.38
2023-05-19T06:20:30.974Z,43.63
2023-05-19T06:22:59.667Z,43.50
2023-05-19T06:25:28.158Z,43.72
2023-05-19T06:27:56.354Z,44.50
2023-05-19T06:30:26.001Z,43.90
2023-05-19T06:32:54.096Z,44.25
2023-05-19T06:35:22.179Z,44.95
2023-05-19T06:37:50.463Z,44.58
2023-05-19T06:40:18.883Z,44.92
2023-05-19T06:42:47.115Z,46.40
2023-05-19T06:45:15.362Z,46.72
2023-05-19T06:47:46.307Z,45.33
2023-05-19T06:50:14.543Z,47.33
2023-05-19T06:52:42.817Z,46.42
2023-05-19T06:55:11.372Z,45.53
2023-05-19T06:57:39.673Z,47.42
2023-05-19T07:00:09.796Z,47.17
2023-05-19T07:02:37.938Z,47.03
2023-05-19T07:05:08.246Z,46.47
2023-05-19T07:07:36.623Z,46.28
2023-05-19T07:10:04.984Z,46.17
2023-05-19T07:12:33.065Z,47.72
2023-05-19T07:15:03.997Z,47.20
2023-05-19T07:17:32.193Z,47.40
2023-05-19T07:20:01.656Z,47.30
2023-05-19T07:22:31.245Z,47.47
2023-05-19T07:24:59.523Z,46.60
2023-05-19T07:27:27.529Z,47.17
2023-05-19T07:29:55.855Z,46.35
2023-05-19T07:32:24.160Z,49.17
2023-05-19T07:34:52.716Z,48.22
2023-05-19T07:37:21.017Z,48.33
2023-05-19T07:39:50.808Z,47.88
2023-05-19T07:42:19.061Z,47.25
2023-05-19T07:44:49.136Z,47.80
2023-05-19T07:47:19.336Z,48.42
2023-05-19T07:49:49.118Z,47.83
2023-05-19T07:52:18.932Z,47.80
2023-05-19T07:54:50.989Z,45.92
2023-05-19T07:57:20.629Z,47.67
2023-05-19T07:59:48.815Z,47.22
2023-05-19T08:02:17.091Z,45.53
2023-05-19T08:04:45.283Z,45.88
2023-05-19T08:07:13.359Z,44.67
2023-05-19T08:09:42.795Z,42.50
2023-05-19T08:12:10.956Z,43.45
2023-05-19T08:14:40.529Z,39.55
2023-05-19T08:17:08.886Z,40.45
2023-05-19T08:19:37.066Z,41.42
2023-05-19T08:22:05.401Z,41.88
2023-05-19T08:24:36.322Z,41.88
2023-05-19T08:27:05.069Z,33.25
2023-05-19T08:29:33.288Z,27.75
2023-05-19T08:32:02.914Z,22.15
2023-05-19T08:34:31.209Z,27.08
2023-05-19T08:36:59.795Z,23.95
2023-05-19T08:39:28.339Z,13.10
2023-05-19T08:41:56.727Z,6.93
2023-05-19T08:44:24.991Z,3.78
2023-05-19T08:46:56.443Z,3.67
2023-05-19T08:49:29.175Z,4.35
2023-05-19T08:52:02.015Z,3.80
2023-05-19T08:54:35.348Z,3.85
2023-05-19T08:57:05.387Z,3.50
2023-05-19T08:59:37.897Z,3.53
2023-05-19T09:02:07.214Z,3.90
2023-05-19T09:04:37.144Z,3.35
2023-05-19T09:07:05.535Z,3.17
2023-05-19T09:09:34.479Z,3.05
2023-05-19T09:12:04.591Z,3.47
2023-05-19T09:14:34.835Z,3.30
2023-05-19T09:17:03.486Z,3.60
2023-05-19T09:19:32.059Z,3.72
2023-05-19T09:22:04.969Z,2.92
2023-05-19T09:24:33.549Z,2.45
2023-05-19T09:27:02.313Z,3.00
2023-05-19T09:29:30.448Z,2.53
2023-05-19T09:32:03.371Z,2.38
2023-05-19T09:34:32.985Z,2.35
2023-05-19T09:37:02.427Z,2.63
2023-05-19T09:39:32.880Z,2.88
2023-05-19T09:42:05.604Z,2.70
2023-05-19T09:44:38.361Z,2.58
2023-05-19T09:47:06.488Z,2.80
2023-05-19T09:49:35.010Z,2.75
2023-05-19T09:52:05.834Z,3.15
2023-05-19T09:54:37.179Z,2.42
2023-05-19T09:57:08.546Z,2.35
2023-05-19T09:59:43.412Z,2.58
2023-05-19T10:02:18.066Z,2.80
2023-05-19T10:04:47.676Z,2.60
2023-05-19T10:07:18.699Z,2.67
2023-05-19T10:09:49.488Z,2.95
2023-05-19T10:12:19.702Z,2.55
2023-05-19T10:14:53.703Z,2.42
2023-05-19T10:17:22.539Z,2.28
2023-05-19T10:19:54.845Z,2.72
2023-05-19T10:22:24.577Z,3.05
2023-05-19T10:24:53.229Z,2.83
2023-05-19T10:27:22.631Z,2.50
2023-05-19T10:29:53.098Z,2.88
2023-05-19T10:32:29.685Z,2.78
2023-05-19T10:35:49.462Z,3.05
2023-05-19T10:38:28.747Z,3.03
2023-05-19T10:41:08.919Z,3.28
2023-05-19T10:43:53.457Z,3.15
2023-05-19T10:46:25.964Z,3.15
2023-05-19T10:48:57.465Z,3.20
2023-05-19T10:51:33.073Z,2.70
2023-05-19T10:54:12.174Z,3.05
2023-05-19T10:56:50.321Z,3.15
2023-05-19T10:59:41.790Z,2.92
2023-05-19T11:02:16.339Z,2.90
2023-05-19T11:04:51.863Z,2.75
2023-05-19T11:07:37.305Z,2.45
2023-05-19T11:10:15.414Z,2.70
2023-05-19T11:12:55.281Z,3.08
2023-05-19T11:15:51.684Z,2.85
2023-05-19T11:18:28.707Z,3.03
2023-05-19T11:21:16.066Z,3.13
2023-05-19T11:23:57.212Z,3.03
2023-05-19T11:27:02.008Z,2.90
2023-05-19T11:29:45.092Z,2.90
2023-05-19T11:32:24.898Z,3.30
2023-05-19T11:34:57.127Z,3.60
2023-05-19T11:37:25.571Z,3.42
2023-05-19T11:39:54.357Z,3.65
2023-05-19T11:42:32.312Z,3.90
2023-05-19T11:45:12.285Z,3.70
2023-05-19T11:48:01.383Z,4.07
2023-05-19T11:50:33.697Z,3.80
2023-05-19T11:53:07.134Z,3.70
2023-05-19T11:55:45.252Z,3.50
2023-05-19T12:01:06.871Z,3.85
2023-05-19T12:03:35.950Z,3.67
2023-05-19T12:06:11.462Z,3.90
2023-05-19T12:09:02.489Z,3.90
2023-05-19T12:11:39.111Z,4.18
2023-05-19T12:14:15.506Z,3.70
2023-05-19T12:16:44.569Z,3.40
2023-05-19T12:19:19.279Z,3.50
2023-05-19T12:21:55.166Z,4.28
2023-05-19T12:24:28.791Z,3.42
2023-05-19T12:27:07.962Z,4.00
2023-05-19T12:29:41.022Z,4.03
2023-05-19T12:32:13.025Z,3.30
2023-05-19T12:34:41.873Z,3.92
2023-05-19T12:37:14.428Z,3.80
2023-05-19T12:39:44.593Z,3.75
2023-05-19T12:42:14.336Z,3.80
2023-05-19T12:44:47.945Z,4.25
2023-05-19T12:47:22.542Z,3.67
2023-05-19T12:49:58.076Z,3.67
2023-05-19T12:52:27.044Z,3.78
2023-05-19T12:55:01.640Z,4.07
2023-05-19T12:57:33.591Z,4.03
2023-05-19T13:00:07.201Z,4.45
2023-05-19T13:02:40.898Z,3.80
2023-05-19T13:05:09.650Z,3.85
2023-05-19T13:07:38.263Z,3.35
2023-05-19T13:10:07.331Z,4.18
2023-05-19T13:12:36.274Z,3.63
2023-05-19T13:15:08.658Z,4.68
2023-05-19T13:17:38.188Z,4.10
2023-05-19T13:20:09.468Z,3.92
2023-05-19T13:22:38.147Z,3.95
2023-05-19T13:25:10.428Z,4.07
2023-05-19T13:27:53.762Z,3.83
2023-05-19T13:30:29.795Z,3.88
2023-05-19T13:32:58.392Z,3.80
2023-05-19T13:35:29.718Z,3.50
2023-05-19T13:38:04.479Z,3.50
2023-05-19T13:40:41.777Z,3.97
2023-05-19T13:43:14.857Z,3.80
2023-05-19T13:46:06.333Z,3.50
2023-05-19T13:48:40.299Z,3.45
2023-05-19T13:51:22.947Z,2.97
2023-05-19T13:53:51.152Z,3.63
2023-05-19T13:56:22.170Z,3.65
2023-05-19T13:59:09.422Z,3.55
2023-05-19T14:01:50.837Z,3.55
2023-05-19T14:04:20.210Z,3.50
2023-05-19T14:06:50.902Z,4.05
2023-05-19T14:09:28.004Z,3.90
2023-05-19T14:11:56.771Z,3.25
2023-05-19T14:14:24.941Z,3.85
2023-05-19T14:16:57.453Z,3.63
2023-05-19T14:19:30.314Z,3.33
2023-05-19T14:22:05.150Z,3.25
2023-05-19T14:24:39.456Z,3.58
2023-05-19T14:27:07.875Z,2.95
2023-05-19T14:29:38.942Z,3.80
2023-05-19T14:32:09.406Z,3.47
2023-05-19T14:34:37.548Z,4.00
2023-05-19T14:37:05.928Z,3.00
2023-05-19T14:39:34.265Z,3.13
2023-05-19T14:42:02.464Z,3.00
2023-05-19T14:44:37.588Z,3.28
2023-05-19T14:47:07.664Z,3.42
2023-05-19T14:49:37.825Z,2.80
2023-05-19T14:52:06.672Z,3.53
2023-05-19T14:54:35.098Z,3.33
2023-05-19T14:57:03.325Z,3.50
2023-05-19T14:59:31.805Z,3.60
2023-05-19T15:02:00.106Z,3.30
2023-05-19T15:04:28.355Z,4.43
2023-05-19T15:09:44.020Z,3.38
2023-05-19T15:12:12.603Z,3.20
2023-05-19T15:14:40.613Z,4.15
2023-05-19T15:17:08.769Z,3.17
2023-05-19T15:19:36.957Z,3.72
2023-05-19T15:22:06.699Z,3.45
2023-05-19T15:24:35.077Z,3.30
2023-05-19T15:27:03.638Z,3.38
2023-05-19T15:29:31.760Z,3.83
2023-05-19T15:31:59.984Z,3.25
2023-05-19T15:34:28.023Z,3.20
2023-05-19T15:36:56.560Z,3.70
2023-05-19T15:39:26.288Z,3.20
2023-05-19T15:41:54.455Z,3.30
2023-05-19T15:44:22.570Z,3.28
2023-05-19T15:46:50.851Z,3.20
2023-05-19T15:49:19.226Z,3.17
2023-05-19T15:51:47.730Z,3.17
2023-05-19T15:54:15.949Z,3.38
2023-05-19T15:56:45.542Z,3.47
2023-05-19T15:59:13.942Z,3.28
2023-05-19T16:01:42.289Z,3.33
2023-05-19T16:04:10.891Z,3.40
2023-05-19T16:06:39.078Z,3.38
2023-05-19T16:09:09.824Z,3.20
2023-05-19T16:11:40.663Z,2.92
2023-05-19T16:14:10.208Z,2.90
2023-05-19T16:16:38.473Z,2.83
2023-05-19T16:19:06.754Z,3.15
2023-05-19T16:21:35.035Z,3.30
2023-05-19T16:24:03.330Z,3.20
2023-05-19T16:26:31.498Z,3.20
2023-05-19T16:28:59.732Z,3.03
2023-05-19T16:31:30.993Z,2.90
2023-05-19T16:33:59.259Z,4.50
2023-05-19T16:36:27.287Z,5.40
2023-05-19T16:38:55.445Z,3.78
2023-05-19T16:41:23.593Z,4.18
2023-05-19T16:43:51.646Z,4.13
2023-05-19T16:46:19.818Z,3.20
2023-05-19T16:48:49.537Z,3.20
2023-05-19T16:51:17.813Z,3.30
2023-05-19T16:53:46.388Z,3.80
2023-05-19T16:56:14.779Z,4.22
2023-05-19T16:58:43.158Z,4.13
2023-05-19T17:01:12.206Z,3.65
2023-05-19T17:03:42.812Z,3.33
2023-05-19T17:06:12.240Z,3.50
2023-05-19T17:08:40.291Z,3.65
2023-05-19T17:11:08.619Z,3.17
2023-05-19T17:13:37.241Z,3.13
2023-05-19T17:16:05.587Z,2.53
2023-05-19T17:18:33.807Z,2.90
2023-05-19T17:21:04.954Z,3.25
2023-05-19T17:23:34.920Z,2.70
2023-05-19T17:26:03.317Z,3.00
2023-05-19T17:28:31.830Z,2.97
2023-05-19T17:31:00.221Z,3.40
2023-05-19T17:33:28.527Z,3.20
2023-05-19T17:35:58.680Z,3.40
2023-05-19T17:38:26.842Z,3.75
2023-05-19T17:40:59.206Z,3.15
2023-05-19T17:43:27.723Z,3.60
2023-05-19T17:45:58.154Z,4.22
2023-05-19T17:48:26.910Z,3.55
2023-05-19T17:50:55.312Z,2.80
2023-05-19T17:53:24.005Z,3.42
2023-05-19T17:55:53.443Z,3.60
2023-05-19T17:58:23.534Z,3.17
2023-05-19T18:00:56.552Z,4.68
2023-05-19T18:03:25.659Z,3.30
2023-05-19T18:05:54.281Z,3.60
2023-05-19T18:08:23.324Z,2.90
2023-05-19T18:10:52.906Z,2.70
2023-05-19T18:13:23.703Z,2.97
2023-05-19T18:15:53.384Z,3.15
2023-05-19T18:18:21.828Z,2.67
2023-05-19T18:20:49.933Z,3.05
2023-05-19T18:23:19.372Z,3.30
2023-05-19T18:25:51.765Z,3.85
2023-05-19T18:28:19.989Z,3.40
2023-05-19T18:30:59.249Z,3.30
2023-05-19T18:33:29.338Z,3.17
2023-05-19T18:35:59.649Z,3.45
2023-05-19T18:38:28.165Z,4.03
2023-05-19T18:40:57.957Z,3.75
2023-05-19T18:43:26.225Z,3.70
2023-05-19T18:45:55.852Z,5.10
2023-05-19T18:48:25.617Z,3.83
2023-05-19T18:50:53.724Z,3.60
2023-05-19T18:53:22.797Z,3.92
2023-05-19T18:55:51.112Z,4.20
2023-05-19T18:58:19.564Z,4.00
2023-05-19T19:00:48.166Z,3.75
2023-05-19T19:03:17.988Z,4.13
2023-05-19T19:05:46.278Z,4.00
2023-05-19T19:08:14.350Z,4.93
2023-05-19T19:10:44.473Z,4.47
2023-05-19T19:13:12.784Z,4.50
2023-05-19T19:15:40.976Z,4.63
2023-05-19T19:18:09.378Z,4.53
2023-05-19T19:20:39.058Z,5.28
2023-05-19T19:23:07.674Z,5.03
2023-05-19T19:25:36.179Z,4.70
2023-05-19T19:28:05.026Z,5.35
2023-05-19T19:30:33.455Z,6.00
2023-05-19T19:33:01.955Z,5.47
2023-05-19T19:35:30.881Z,5.88
2023-05-19T19:38:01.119Z,4.90
2023-05-19T19:40:29.521Z,5.40
2023-05-19T19:42:58.186Z,5.20
2023-05-19T19:45:26.518Z,5.18
2023-05-19T19:47:55.081Z,5.57
2023-05-19T19:50:23.713Z,5.10
2023-05-19T19:52:52.078Z,5.72
2023-05-19T19:55:21.668Z,5.63
2023-05-19T19:57:51.240Z,5.72
2023-05-19T20:00:23.167Z,5.60
2023-05-19T20:03:04.283Z,6.10
2023-05-19T20:05:33.378Z,5.32
2023-05-19T20:08:01.898Z,6.18
2023-05-19T20:10:32.818Z,5.43
2023-05-19T20:13:01.315Z,6.20
2023-05-19T20:15:29.487Z,6.18
2023-05-19T20:17:57.646Z,5.75
2023-05-19T20:20:25.871Z,6.82
2023-05-19T20:22:54.175Z,6.13
2023-05-19T20:25:22.394Z,5.75
2023-05-19T20:27:52.219Z,5.45
2023-05-19T20:30:20.846Z,5.70
2023-05-19T20:32:49.174Z,5.70
2023-05-19T20:35:17.504Z,6.22
2023-05-19T20:37:45.674Z,5.78
2023-05-19T20:40:14.142Z,5.53
2023-05-19T20:42:42.511Z,5.60
2023-05-19T20:45:13.906Z,5.72
2023-05-19T20:47:42.334Z,5.63
2023-05-19T20:50:10.512Z,5.97
2023-05-19T20:52:38.797Z,6.13
2023-05-19T20:55:07.300Z,5.22
2023-05-19T20:57:36.152Z,5.63
2023-05-19T21:00:04.712Z,5.82
2023-05-19T21:02:34.186Z,5.88
2023-05-19T21:05:02.516Z,5.43
2023-05-19T21:07:30.677Z,6.10
2023-05-19T21:09:58.676Z,5.60
2023-05-19T21:12:29.388Z,6.00
2023-05-19T21:14:57.565Z,5.93
2023-05-19T21:17:25.808Z,6.43
2023-05-19T21:19:59.549Z,6.60
2023-05-19T21:22:28.437Z,6.85
2023-05-19T21:24:56.616Z,8.32
2023-05-19T21:27:25.058Z,8.32
2023-05-19T21:29:54.305Z,8.88
2023-05-19T21:32:23.104Z,9.68
2023-05-19T21:34:51.249Z,9.77
2023-05-19T21:37:21.734Z,11.60
2023-05-19T21:39:49.874Z,12.02
2023-05-19T21:42:17.994Z,11.60
2023-05-19T21:44:46.026Z,13.55
2023-05-19T21:47:14.342Z,13.18
2023-05-19T21:49:42.363Z,14.02
2023-05-19T21:52:11.220Z,12.68
2023-05-19T21:54:40.707Z,13.85
2023-05-19T21:57:11.209Z,15.85
2023-05-19T21:59:39.478Z,18.08
2023-05-19T22:02:07.933Z,20.10
2023-05-19T22:04:37.198Z,19.63
2023-05-19T22:07:14.542Z,19.10
2023-05-19T22:09:44.015Z,20.80
2023-05-19T22:12:12.024Z,22.50
2023-05-19T22:14:40.103Z,23.25
2023-05-19T22:17:08.091Z,26.65
2023-05-19T22:19:36.942Z,25.80
2023-05-19T22:22:13.220Z,27.27
2023-05-19T22:24:43.981Z,29.52
2023-05-19T22:27:12.066Z,29.58
2023-05-19T22:29:40.213Z,31.50
2023-05-19T22:32:11.894Z,29.75
2023-05-19T22:34:40.275Z,35.45
2023-05-19T22:37:08.396Z,31.73
2023-05-19T22:39:36.678Z,29.02
2023-05-19T22:42:07.108Z,25.75
2023-05-19T22:44:35.276Z,25.40
2023-05-19T22:47:03.434Z,23.70
2023-05-19T22:49:31.551Z,24.40
2023-05-19T22:51:59.682Z,27.80
2023-05-19T22:54:27.805Z,28.85
2023-05-19T22:56:58.241Z,29.45
2023-05-19T22:59:27.665Z,26.00
2023-05-19T23:01:56.002Z,28.88
2023-05-19T23:04:24.128Z,28.98
2023-05-19T23:06:52.360Z,30.70
2023-05-19T23:09:20.603Z,27.30
2023-05-19T23:11:48.904Z,27.55
2023-05-19T23:14:18.526Z,25.13
2023-05-19T23:16:48.160Z,24.48
2023-05-19T23:19:17.115Z,20.92
2023-05-19T23:21:46.449Z,25.98
2023-05-19T23:24:14.828Z,23.92
2023-05-19T23:26:43.990Z,21.23
2023-05-19T23:29:12.986Z,16.63
2023-05-19T23:31:41.293Z,16.25
2023-05-19T23:34:11.325Z,16.80
2023-05-19T23:36:39.841Z,14.95
2023-05-19T23:39:07.901Z,13.38
2023-05-19T23:41:36.881Z,13.00
2023-05-19T23:44:05.042Z,12.15
2023-05-19T23:46:33.435Z,11.27
2023-05-19T23:49:01.594Z,9.98
2023-05-19T23:51:31.906Z,8.68
2023-05-19T23:54:00.232Z,8.07
2023-05-19T23:56:28.411Z,6.93
2023-05-19T23:58:56.711Z,6.03
